< < Back
Terminal Aerodrome Forecast


Current Version              Previous Versions:   1  2  3  4  5  6  7  8  9  

Terminal Aerodrome Forecast

986
FTUS44 KBMX 171300 AAC
TAFMGM
TAF AMD
KMGM 171309Z 1713/1812 VRB03KT P6SM FEW005
     FM171400 34006KT P6SM SKC
     FM180000 VRB02KT P6SM SKC=



Latest METAR

811
SAUS80 KWBC 181300
MTRMGM
METAR KMGM 181253Z 00000KT 10SM CLR 21/18 A2997 RMK AO2 SLP144
T02110178


USA.gov is the U.S. government's official web portal to all federal, state and local government web resources and services.